< < Back
Terminal Aerodrome Forecast


Current Version              Previous Versions:   1  2  3  4  5  6  7  8  9  

Terminal Aerodrome Forecast

225
FTUS42 KFFC 041137
TAFAHN
TAF
KAHN 041137Z 0412/0512 25007KT P6SM -SHRA OVC090
     FM041500 26010G17KT P6SM -SHRA SCT030 BKN050
     FM041800 26012G20KT P6SM -SHRA SCT035 BKN040
      TEMPO 0420/0424 4SM TSRA BR BKN025CB
     FM050000 28003KT P6SM -SHRA OVC040
     FM050900 27003KT P6SM BKN060 PROB30 0509/0512 -SHRA BKN040=



Latest METAR

389
SAUS70 KWBC 041600 RRA
MTRAHN
METAR KAHN 041551Z 25005KT 5SM RA BR OVC110 22/21 A3013 RMK AO2 RAB09
PRESRR SLP196 P0001 T02170206


USA.gov is the U.S. government's official web portal to all federal, state and local government web resources and services.